Time;durP1;ratioP1;P1;durP2;ratioP2;P2;SDS_P1;SDS_P2;PMS_P1;PMS_P2;Temp;Humidity;BMP_temperature;BMP_pressure;BME280_temperature;BME280_humidity;BME280_pressure;Samples;Min_cycle;Max_cycle;Signal;HPM_P1;HPM_P2
2022/10/11 00:04:49;;;;;;;9.43;1.60;;;;;;;9.23;100.00;102026.56;20961128;28;20279;-61
2022/10/11 00:15:18;;;;;;;10.07;1.75;;;;;;;9.00;100.00;102044.81;20962945;28;20591;-62
2022/10/11 00:25:39;;;;;;;10.45;1.90;;;;;;;9.05;100.00;102054.13;20986078;28;20114;-62
2022/10/11 00:36:01;;;;;;;14.90;2.30;;;;;;;8.98;100.00;102054.41;20963954;28;20063;-62
2022/10/11 00:46:27;;;;;;;12.38;2.33;;;;;;;8.97;100.00;102071.78;20965897;28;20895;-62
2022/10/11 00:56:53;;;;;;;16.95;2.00;;;;;;;9.07;100.00;102067.91;20969931;28;20041;-61
2022/10/11 01:07:17;;;;;;;9.63;1.55;;;;;;;8.95;100.00;102076.19;20965354;28;20037;-62
2022/10/11 01:17:58;;;;;;;13.35;2.10;;;;;;;8.89;100.00;102088.56;20968015;28;20041;-62
2022/10/11 01:28:55;;;;;;;24.10;2.58;;;;;;;8.74;100.00;102083.94;20972058;28;20671;-62
2022/10/11 01:39:28;;;;;;;14.02;1.60;;;;;;;8.69;100.00;102091.06;20981084;28;20068;-62
2022/10/11 01:49:59;;;;;;;10.57;1.83;;;;;;;8.49;100.00;102100.47;20965268;28;20110;-62
2022/10/11 02:00:38;;;;;;;12.18;1.80;;;;;;;8.56;100.00;102104.56;20986103;28;20489;-64
2022/10/11 02:11:05;;;;;;;9.82;2.05;;;;;;;8.46;100.00;102114.44;20980979;28;20045;-61
2022/10/11 02:21:28;;;;;;;15.23;2.00;;;;;;;8.46;100.00;102114.44;20971868;28;20481;-62
2022/10/11 02:31:51;;;;;;;9.95;1.77;;;;;;;8.26;100.00;102124.66;20976735;28;20526;-62
2022/10/11 02:42:18;;;;;;;14.27;1.73;;;;;;;8.44;100.00;102136.19;20984512;28;20048;-61
2022/10/11 02:52:39;;;;;;;9.68;1.73;;;;;;;8.27;100.00;102138.53;20986133;28;20045;-62
2022/10/11 03:03:00;;;;;;;15.70;2.17;;;;;;;8.33;100.00;102143.47;20964251;28;20102;-62
2022/10/11 03:13:22;;;;;;;12.03;1.93;;;;;;;8.24;100.00;102159.41;20973774;28;20041;-62
2022/10/11 03:23:44;;;;;;;14.25;1.92;;;;;;;8.23;100.00;102162.91;20969428;28;20052;-62
2022/10/11 03:34:05;;;;;;;12.00;2.23;;;;;;;8.14;100.00;102169.22;20977329;28;20574;-61
2022/10/11 03:44:27;;;;;;;8.57;1.93;;;;;;;8.19;100.00;102171.69;20970594;28;20432;-62
2022/10/11 03:54:48;;;;;;;12.80;1.83;;;;;;;8.07;100.00;102183.31;20969051;28;20045;-62
2022/10/11 04:05:11;;;;;;;10.87;1.90;;;;;;;8.01;100.00;102188.69;20974810;28;20056;-62
2022/10/11 04:15:33;;;;;;;11.48;2.03;;;;;;;7.92;100.00;102201.97;20971546;28;20044;-62
2022/10/11 04:25:54;;;;;;;15.87;2.30;;;;;;;7.78;100.00;102216.28;20967543;28;20058;-62
2022/10/11 04:36:16;;;;;;;16.43;2.43;;;;;;;7.84;100.00;102231.66;20958687;28;20517;-62
2022/10/11 04:46:37;;;;;;;11.03;2.10;;;;;;;7.85;100.00;102234.19;20964552;28;20051;-61
2022/10/11 04:56:59;;;;;;;12.17;2.53;;;;;;;7.77;100.00;102253.50;20961178;28;20044;-62
2022/10/11 05:07:20;;;;;;;10.20;1.80;;;;;;;7.78;100.00;102255.19;20959561;28;20520;-61
2022/10/11 05:17:42;;;;;;;11.57;2.13;;;;;;;7.68;100.00;102271.97;20951242;28;20040;-62
2022/10/11 05:28:03;;;;;;;8.73;2.17;;;;;;;7.68;100.00;102271.97;20953714;28;20056;-62
2022/10/11 05:38:25;;;;;;;10.73;1.70;;;;;;;7.52;100.00;102295.78;20947744;28;20067;-62
2022/10/11 05:48:47;;;;;;;;;;;;;;;7.68;100.00;102295.31;20952977;28;20048;-62
2022/10/11 05:59:08;;;;;;;11.60;2.25;;;;;;;7.59;100.00;102316.31;20949262;28;20442;-62
2022/10/11 06:09:30;;;;;;;11.13;2.33;;;;;;;7.34;100.00;102317.91;20956461;28;20432;-62
2022/10/11 06:19:51;;;;;;;8.47;2.27;;;;;;;7.45;100.00;102328.81;20951810;28;20036;-62
2022/10/11 06:30:13;;;;;;;13.40;2.00;;;;;;;7.46;100.00;102335.72;20940976;28;20044;-63
2022/10/11 06:40:35;;;;;;;15.43;2.55;;;;;;;7.51;100.00;102340.78;20956802;28;20559;-62
2022/10/11 06:50:58;;;;;;;7.55;1.92;;;;;;;7.74;100.00;102355.69;20989512;28;20062;-62
2022/10/11 07:01:22;;;;;;;11.40;2.05;;;;;;;7.75;100.00;102366.88;20975308;28;20114;-63
2022/10/11 07:11:46;;;;;;;10.88;2.17;;;;;;;8.02;100.00;102379.06;20967692;28;20053;-62
2022/10/11 07:22:07;;;;;;;15.93;2.22;;;;;;;8.16;100.00;102396.00;20969729;28;20412;-62
2022/10/11 07:32:29;;;;;;;13.97;1.90;;;;;;;8.30;100.00;102403.34;20953063;28;20052;-67
2022/10/11 07:42:51;;;;;;;;;;;;;;;8.46;100.00;102409.78;20969086;28;20421;-62
2022/10/11 07:53:12;;;;;;;6.83;1.83;;;;;;;8.84;100.00;102413.78;20959475;28;19921;-62
2022/10/11 08:03:34;;;;;;;12.30;2.00;;;;;;;9.14;100.00;102407.56;20999008;28;20101;-62
2022/10/11 08:13:56;;;;;;;8.97;1.93;;;;;;;9.42;100.00;102413.53;20952588;28;20432;-62
2022/10/11 08:24:19;;;;;;;10.27;1.90;;;;;;;9.77;100.00;102420.94;20969464;28;20483;-62
2022/10/11 08:34:41;;;;;;;10.77;2.50;;;;;;;10.09;100.00;102428.47;20976277;28;20501;-63
2022/10/11 08:45:07;;;;;;;15.97;2.80;;;;;;;10.37;99.37;102429.13;20962617;28;20048;-62
2022/10/11 08:55:42;;;;;;;16.58;2.60;;;;;;;10.69;99.35;102443.47;20959835;28;20745;-62
2022/10/11 09:06:18;;;;;;;;;;;;;;;11.05;96.33;102444.63;20977051;28;20045;-63
2022/10/11 09:17:09;;;;;;;11.45;1.80;;;;;;;11.43;92.30;102456.94;20975392;28;19924;-62
2022/10/11 09:27:38;;;;;;;11.20;1.83;;;;;;;11.77;91.26;102459.84;20959032;28;20044;-62
2022/10/11 09:38:39;;;;;;;14.60;1.98;;;;;;;12.12;90.57;102456.50;20955341;28;20445;-63
2022/10/11 09:49:06;;;;;;;15.18;2.00;;;;;;;12.33;89.94;102466.00;20958908;28;20122;-63
2022/10/11 09:59:34;;;;;;;11.23;2.00;;;;;;;12.78;83.67;102465.56;20954948;28;20094;-62
2022/10/11 10:09:56;;;;;;;15.32;2.10;;;;;;;13.14;81.55;102469.03;20955109;28;20500;-63
2022/10/11 10:20:21;;;;;;;11.02;1.65;;;;;;;13.32;81.13;102473.38;20965919;28;20072;-62
2022/10/11 10:30:55;;;;;;;15.43;2.30;;;;;;;13.63;79.88;102478.78;20962698;28;20048;-63
2022/10/11 10:41:17;;;;;;;13.60;2.00;;;;;;;13.80;79.48;102481.41;20962098;28;20570;-64
2022/10/11 10:51:51;;;;;;;12.00;1.80;;;;;;;13.74;81.90;102465.97;20972930;28;20490;-63
2022/10/11 11:02:20;;;;;;;12.27;1.88;;;;;;;14.27;77.20;102469.25;20971700;28;20098;-63
2022/10/11 11:13:17;;;;;;;12.38;1.88;;;;;;;14.47;77.18;102475.16;20962072;28;20047;-62
2022/10/11 11:23:55;;;;;;;11.63;1.88;;;;;;;14.39;72.51;102477.34;20964239;28;20064;-63
2022/10/11 11:34:22;;;;;;;15.60;1.83;;;;;;;14.62;72.82;102466.44;20974414;28;20626;-63
2022/10/11 11:44:49;;;;;;;9.07;1.40;;;;;;;14.78;72.23;102464.63;20966467;28;20040;-63
2022/10/11 11:55:43;;;;;;;8.52;1.52;;;;;;;14.68;73.62;102456.44;20967146;28;20051;-63
2022/10/11 12:06:11;;;;;;;17.83;1.67;;;;;;;14.78;74.83;102454.13;20970188;28;20136;-63
2022/10/11 12:16:33;;;;;;;15.43;1.67;;;;;;;14.81;74.29;102436.44;20970120;28;20047;-63
2022/10/11 12:26:56;;;;;;;12.77;1.77;;;;;;;15.17;73.07;102436.97;20961571;28;20512;-63
2022/10/11 12:37:18;;;;;;;6.78;1.60;;;;;;;15.31;72.41;102434.41;20985099;28;20102;-63
2022/10/11 12:47:55;;;;;;;11.15;1.50;;;;;;;15.01;71.36;102430.91;20961820;28;20147;-63
2022/10/11 12:58:23;;;;;;;9.25;1.30;;;;;;;15.33;69.95;102434.34;20956121;28;20082;-63
2022/10/11 13:08:51;;;;;;;10.82;1.73;;;;;;;15.40;68.61;102428.63;20950860;28;20047;-63
2022/10/11 13:19:14;;;;;;;7.45;1.70;;;;;;;15.66;68.23;102425.28;20956094;28;20456;-63
2022/10/11 13:29:40;;;;;;;7.80;1.10;;;;;;;15.44;68.21;102424.88;20956834;28;20051;-63
2022/10/11 13:40:02;;;;;;;7.50;1.45;;;;;;;15.37;69.64;102426.19;20944914;28;20037;-63
2022/10/11 13:50:30;;;;;;;7.18;1.20;;;;;;;15.17;71.27;102421.19;20966202;28;20048;-63
2022/10/11 14:00:59;;;;;;;12.77;1.65;;;;;;;15.03;72.62;102423.78;20984304;28;20516;-63
2022/10/11 14:11:36;;;;;;;11.02;1.50;;;;;;;15.01;75.18;102422.19;20970699;28;20047;-63
2022/10/11 14:21:58;;;;;;;15.05;1.75;;;;;;;14.91;74.26;102418.41;20973751;28;20045;-62
2022/10/11 14:32:28;;;;;;;12.10;1.55;;;;;;;14.95;77.44;102420.75;20958009;28;20060;-64
2022/10/11 14:42:50;;;;;;;7.97;1.58;;;;;;;14.69;79.16;102433.66;20951383;28;20052;-63
2022/10/11 14:53:12;;;;;;;12.23;1.60;;;;;;;14.64;80.13;102427.81;20955455;28;20040;-63
2022/10/11 15:03:34;;;;;;;6.38;1.67;;;;;;;14.49;81.85;102440.03;20971221;28;20051;-63
2022/10/11 15:13:55;;;;;;;13.00;2.03;;;;;;;14.30;82.74;102430.63;20956046;28;20094;-63
2022/10/11 15:24:20;;;;;;;;;;;;;;;14.36;83.20;102434.69;20968525;28;20061;-63
2022/10/11 15:34:43;;;;;;;7.47;1.30;;;;;;;14.34;83.77;102431.28;20954047;28;20329;-63
2022/10/11 15:45:04;;;;;;;16.35;2.33;;;;;;;14.25;83.18;102431.81;20949690;28;20040;-63
2022/10/11 15:55:26;;;;;;;11.35;1.70;;;;;;;14.25;83.11;102419.50;20984360;28;20101;-63
2022/10/11 16:05:47;;;;;;;6.88;1.45;;;;;;;14.11;84.51;102416.75;20950634;28;20033;-62
2022/10/11 16:16:10;;;;;;;7.68;1.52;;;;;;;14.21;84.21;102419.78;20953664;28;20048;-63
2022/10/11 16:26:31;;;;;;;6.78;1.58;;;;;;;14.13;84.59;102416.69;20932762;28;20040;-63
2022/10/11 16:36:53;;;;;;;;;;;;;;;13.98;83.64;102418.34;20949082;28;20045;-64
2022/10/11 16:47:15;;;;;;;7.67;1.67;;;;;;;13.61;86.02;102417.72;20935771;28;19927;-63
2022/10/11 16:57:37;;;;;;;8.77;1.85;;;;;;;13.24;90.77;102427.53;20948003;28;20040;-63
2022/10/11 17:07:59;;;;;;;9.60;2.05;;;;;;;13.17;92.97;102428.78;20941955;28;20044;-62
2022/10/11 17:18:20;;;;;;;11.27;2.50;;;;;;;12.97;93.24;102427.13;20935657;28;20051;-63
2022/10/11 17:28:42;;;;;;;7.25;2.22;;;;;;;12.83;96.26;102432.16;20939413;28;20060;-63
2022/10/11 17:39:06;;;;;;;9.20;2.97;;;;;;;12.77;96.57;102427.22;20948748;28;20043;-63
2022/10/11 17:49:28;;;;;;;10.68;3.33;;;;;;;12.56;97.05;102438.69;20951740;28;20044;-63
2022/10/11 17:59:51;;;;;;;8.82;3.40;;;;;;;12.43;98.43;102439.38;20955612;28;20642;-63
2022/10/11 18:10:12;;;;;;;10.52;3.25;;;;;;;12.35;99.80;102432.78;20951044;28;20099;-63
2022/10/11 18:20:34;;;;;;;8.65;3.25;;;;;;;12.32;99.42;102425.91;20942851;28;20443;-63
2022/10/11 18:30:56;;;;;;;13.20;4.40;;;;;;;12.34;100.00;102426.69;20957851;28;20040;-62
2022/10/11 18:41:20;;;;;;;14.32;4.88;;;;;;;12.49;99.92;102429.47;20966184;28;20102;-63
2022/10/11 18:51:44;;;;;;;16.70;4.03;;;;;;;12.60;99.39;102424.56;20973240;28;20102;-62
2022/10/11 19:02:06;;;;;;;15.85;4.20;;;;;;;12.64;99.78;102415.66;20970756;28;20697;-63
2022/10/11 19:12:27;;;;;;;17.33;4.10;;;;;;;12.66;99.28;102419.00;20972697;28;20110;-63
2022/10/11 19:22:48;;;;;;;17.23;4.43;;;;;;;12.81;97.49;102422.69;20969574;28;20509;-63
2022/10/11 19:33:10;;;;;;;13.07;4.43;;;;;;;12.78;97.91;102415.84;20969646;28;20094;-63
2022/10/11 19:43:31;;;;;;;11.02;4.88;;;;;;;12.69;100.00;102413.66;20949914;28;20531;-63
2022/10/11 19:54:04;;;;;;;;;;;;;;;12.68;99.13;102417.19;20966321;28;20131;-63
2022/10/11 20:04:25;;;;;;;17.15;4.57;;;;;;;12.65;100.00;102413.88;20979949;28;19990;-63
2022/10/11 20:15:07;;;;;;;;;;;;;;;12.39;100.00;102414.25;20967154;28;20519;-63
2022/10/11 20:25:28;;;;;;;14.83;4.70;;;;;;;12.16;100.00;102405.78;20964226;28;19920;-63
2022/10/11 20:36:09;;;;;;;16.75;4.72;;;;;;;11.93;100.00;102419.88;20950345;28;20090;-63
2022/10/11 20:46:34;;;;;;;14.20;4.90;;;;;;;11.81;100.00;102406.50;20954978;28;20045;-63
2022/10/11 20:56:56;;;;;;;21.13;6.45;;;;;;;11.66;100.00;102410.66;20956547;28;20056;-62
2022/10/11 21:07:17;;;;;;;18.33;6.20;;;;;;;11.39;100.00;102410.97;20964104;28;20114;-63
2022/10/11 21:17:39;;;;;;;20.20;5.70;;;;;;;11.34;100.00;102412.94;20945060;28;20032;-63
2022/10/11 21:28:01;;;;;;;12.77;5.13;;;;;;;11.21;100.00;102411.72;20942805;28;20044;-63
2022/10/11 21:38:23;;;;;;;11.18;5.30;;;;;;;11.09;100.00;102409.63;20956048;28;20044;-65
2022/10/11 21:48:45;;;;;;;11.90;4.70;;;;;;;10.82;100.00;102421.19;20954969;28;20122;-63
2022/10/11 21:59:06;;;;;;;14.48;4.93;;;;;;;10.81;100.00;102405.63;20957836;28;20114;-63
2022/10/11 22:09:33;;;;;;;15.65;4.97;;;;;;;10.64;100.00;102408.06;20957681;28;20041;-63
2022/10/11 22:19:55;;;;;;;11.15;4.40;;;;;;;10.63;100.00;102403.75;20964016;28;20044;-63
2022/10/11 22:30:16;;;;;;;13.00;4.27;;;;;;;10.49;100.00;102398.22;20962804;28;20098;-63
2022/10/11 22:40:38;;;;;;;11.27;4.30;;;;;;;10.39;100.00;102406.44;20974498;28;20048;-62
2022/10/11 22:51:00;;;;;;;;;;;;;;;10.36;100.00;102417.00;20994510;28;20271;-63
2022/10/11 23:01:21;;;;;;;9.20;3.97;;;;;;;10.28;100.00;102413.84;20965979;28;19970;-64
2022/10/11 23:11:43;;;;;;;11.50;3.97;;;;;;;10.15;100.00;102410.00;20970323;28;20051;-63
2022/10/11 23:22:04;;;;;;;11.90;3.73;;;;;;;9.99;100.00;102408.88;20963484;28;20044;-63
2022/10/11 23:32:26;;;;;;;10.40;3.53;;;;;;;9.98;100.00;102420.16;20969391;28;20056;-63
2022/10/11 23:42:47;;;;;;;12.33;3.17;;;;;;;9.87;100.00;102417.09;20968137;28;20049;-63
2022/10/11 23:53:09;;;;;;;12.17;3.47;;;;;;;9.73;100.00;102415.00;20998155;28;20548;-63
